sensor_id;sensor_type;location;lat;lon;timestamp;P1;durP1;ratioP1;P2;durP2;ratioP2
18947;SDS011;9607;51.600;7.558;2023-05-07T00:00:40;3.35;;;3.05;;
18947;SDS011;9607;51.600;7.558;2023-05-07T00:03:08;3.42;;;3.13;;
18947;SDS011;9607;51.600;7.558;2023-05-07T00:05:36;3.15;;;2.95;;
18947;SDS011;9607;51.600;7.558;2023-05-07T00:08:05;3.40;;;3.10;;
18947;SDS011;9607;51.600;7.558;2023-05-07T00:10:32;3.20;;;2.90;;
18947;SDS011;9607;51.600;7.558;2023-05-07T00:12:59;3.60;;;3.30;;
18947;SDS011;9607;51.600;7.558;2023-05-07T00:15:26;3.33;;;3.13;;
18947;SDS011;9607;51.600;7.558;2023-05-07T00:17:55;3.38;;;3.08;;
18947;SDS011;9607;51.600;7.558;2023-05-07T00:20:24;3.35;;;3.05;;
18947;SDS011;9607;51.600;7.558;2023-05-07T00:22:51;3.72;;;3.42;;
18947;SDS011;9607;51.600;7.558;2023-05-07T00:25:19;3.35;;;3.10;;
18947;SDS011;9607;51.600;7.558;2023-05-07T00:27:47;3.80;;;3.45;;
18947;SDS011;9607;51.600;7.558;2023-05-07T00:30:14;3.95;;;3.55;;
18947;SDS011;9607;51.600;7.558;2023-05-07T00:32:41;3.65;;;3.35;;
18947;SDS011;9607;51.600;7.558;2023-05-07T00:35:10;3.00;;;2.80;;
18947;SDS011;9607;51.600;7.558;2023-05-07T00:37:37;3.13;;;2.92;;
18947;SDS011;9607;51.600;7.558;2023-05-07T00:40:04;3.47;;;3.17;;
18947;SDS011;9607;51.600;7.558;2023-05-07T00:42:34;3.10;;;2.70;;
18947;SDS011;9607;51.600;7.558;2023-05-07T00:45:01;3.03;;;2.83;;
18947;SDS011;9607;51.600;7.558;2023-05-07T00:47:29;3.33;;;3.05;;
18947;SDS011;9607;51.600;7.558;2023-05-07T00:49:56;3.38;;;3.08;;
18947;SDS011;9607;51.600;7.558;2023-05-07T00:52:24;3.47;;;2.80;;
18947;SDS011;9607;51.600;7.558;2023-05-07T00:54:52;4.00;;;3.70;;
18947;SDS011;9607;51.600;7.558;2023-05-07T00:57:20;3.40;;;3.13;;
18947;SDS011;9607;51.600;7.558;2023-05-07T00:59:49;3.67;;;3.38;;
18947;SDS011;9607;51.600;7.558;2023-05-07T01:02:17;3.95;;;3.65;;
18947;SDS011;9607;51.600;7.558;2023-05-07T01:04:44;3.30;;;3.10;;
18947;SDS011;9607;51.600;7.558;2023-05-07T01:07:11;3.80;;;3.50;;
18947;SDS011;9607;51.600;7.558;2023-05-07T01:09:39;4.82;;;4.43;;
18947;SDS011;9607;51.600;7.558;2023-05-07T01:12:06;3.80;;;3.45;;
18947;SDS011;9607;51.600;7.558;2023-05-07T01:14:34;4.20;;;3.25;;
18947;SDS011;9607;51.600;7.558;2023-05-07T01:17:02;3.20;;;3.00;;
18947;SDS011;9607;51.600;7.558;2023-05-07T01:19:29;3.50;;;3.20;;
18947;SDS011;9607;51.600;7.558;2023-05-07T01:21:58;3.08;;;2.88;;
18947;SDS011;9607;51.600;7.558;2023-05-07T01:24:31;3.10;;;2.90;;
18947;SDS011;9607;51.600;7.558;2023-05-07T01:26:58;3.38;;;3.08;;
18947;SDS011;9607;51.600;7.558;2023-05-07T01:29:26;3.05;;;2.80;;
18947;SDS011;9607;51.600;7.558;2023-05-07T01:31:53;3.67;;;3.38;;
18947;SDS011;9607;51.600;7.558;2023-05-07T01:34:20;3.70;;;3.40;;
18947;SDS011;9607;51.600;7.558;2023-05-07T01:36:48;3.55;;;3.25;;
18947;SDS011;9607;51.600;7.558;2023-05-07T01:39:15;2.80;;;2.60;;
18947;SDS011;9607;51.600;7.558;2023-05-07T01:41:44;3.38;;;3.08;;
18947;SDS011;9607;51.600;7.558;2023-05-07T01:44:12;3.70;;;3.40;;
18947;SDS011;9607;51.600;7.558;2023-05-07T01:46:40;4.47;;;4.07;;
18947;SDS011;9607;51.600;7.558;2023-05-07T01:49:07;3.58;;;3.28;;
18947;SDS011;9607;51.600;7.558;2023-05-07T01:51:34;5.28;;;4.78;;
18947;SDS011;9607;51.600;7.558;2023-05-07T01:54:02;3.78;;;3.47;;
18947;SDS011;9607;51.600;7.558;2023-05-07T01:56:29;3.65;;;3.35;;
18947;SDS011;9607;51.600;7.558;2023-05-07T01:58:57;5.15;;;4.65;;
18947;SDS011;9607;51.600;7.558;2023-05-07T02:01:24;4.78;;;4.38;;
18947;SDS011;9607;51.600;7.558;2023-05-07T02:03:51;5.05;;;4.55;;
18947;SDS011;9607;51.600;7.558;2023-05-07T02:06:18;4.13;;;3.83;;
18947;SDS011;9607;51.600;7.558;2023-05-07T02:08:46;5.30;;;4.80;;
18947;SDS011;9607;51.600;7.558;2023-05-07T02:11:13;5.32;;;4.82;;
18947;SDS011;9607;51.600;7.558;2023-05-07T02:13:41;3.97;;;3.67;;
18947;SDS011;9607;51.600;7.558;2023-05-07T02:16:09;4.60;;;4.20;;
18947;SDS011;9607;51.600;7.558;2023-05-07T02:18:36;4.30;;;3.90;;
18947;SDS011;9607;51.600;7.558;2023-05-07T02:21:03;3.70;;;3.40;;
18947;SDS011;9607;51.600;7.558;2023-05-07T02:23:29;3.47;;;3.17;;
18947;SDS011;9607;51.600;7.558;2023-05-07T02:25:56;3.40;;;3.10;;
18947;SDS011;9607;51.600;7.558;2023-05-07T02:28:23;4.13;;;3.70;;
18947;SDS011;9607;51.600;7.558;2023-05-07T02:30:50;3.17;;;2.88;;
18947;SDS011;9607;51.600;7.558;2023-05-07T02:33:18;3.25;;;3.00;;
18947;SDS011;9607;51.600;7.558;2023-05-07T02:35:45;2.92;;;2.72;;
18947;SDS011;9607;51.600;7.558;2023-05-07T02:38:12;3.53;;;3.22;;
18947;SDS011;9607;51.600;7.558;2023-05-07T02:40:39;3.33;;;3.03;;
18947;SDS011;9607;51.600;7.558;2023-05-07T02:43:05;4.68;;;4.28;;
18947;SDS011;9607;51.600;7.558;2023-05-07T02:45:32;3.72;;;3.42;;
18947;SDS011;9607;51.600;7.558;2023-05-07T02:47:59;4.28;;;3.78;;
18947;SDS011;9607;51.600;7.558;2023-05-07T02:50:27;3.65;;;3.35;;
18947;SDS011;9607;51.600;7.558;2023-05-07T02:52:54;3.10;;;2.90;;
18947;SDS011;9607;51.600;7.558;2023-05-07T02:55:21;3.90;;;3.53;;
18947;SDS011;9607;51.600;7.558;2023-05-07T02:57:48;3.30;;;3.10;;
18947;SDS011;9607;51.600;7.558;2023-05-07T03:00:15;3.00;;;2.70;;
18947;SDS011;9607;51.600;7.558;2023-05-07T03:02:44;3.35;;;3.05;;
18947;SDS011;9607;51.600;7.558;2023-05-07T03:05:11;3.75;;;3.45;;
18947;SDS011;9607;51.600;7.558;2023-05-07T03:07:40;3.90;;;3.60;;
18947;SDS011;9607;51.600;7.558;2023-05-07T03:10:10;4.30;;;3.90;;
18947;SDS011;9607;51.600;7.558;2023-05-07T03:12:37;4.50;;;4.07;;
18947;SDS011;9607;51.600;7.558;2023-05-07T03:15:04;4.03;;;3.72;;
18947;SDS011;9607;51.600;7.558;2023-05-07T03:17:31;3.53;;;3.22;;
18947;SDS011;9607;51.600;7.558;2023-05-07T03:19:58;3.88;;;3.58;;
18947;SDS011;9607;51.600;7.558;2023-05-07T03:22:25;3.38;;;3.08;;
18947;SDS011;9607;51.600;7.558;2023-05-07T03:24:53;3.70;;;3.40;;
18947;SDS011;9607;51.600;7.558;2023-05-07T03:27:20;3.70;;;3.40;;
18947;SDS011;9607;51.600;7.558;2023-05-07T03:29:46;3.95;;;3.65;;
18947;SDS011;9607;51.600;7.558;2023-05-07T03:32:13;4.28;;;3.88;;
18947;SDS011;9607;51.600;7.558;2023-05-07T03:34:40;3.97;;;3.58;;
18947;SDS011;9607;51.600;7.558;2023-05-07T03:37:07;4.32;;;3.92;;
18947;SDS011;9607;51.600;7.558;2023-05-07T03:39:34;4.22;;;3.83;;
18947;SDS011;9607;51.600;7.558;2023-05-07T03:42:02;4.03;;;3.63;;
18947;SDS011;9607;51.600;7.558;2023-05-07T03:44:29;3.95;;;3.63;;
18947;SDS011;9607;51.600;7.558;2023-05-07T03:46:56;4.57;;;4.18;;
18947;SDS011;9607;51.600;7.558;2023-05-07T03:49:23;4.60;;;4.20;;
18947;SDS011;9607;51.600;7.558;2023-05-07T03:51:50;4.50;;;4.10;;
18947;SDS011;9607;51.600;7.558;2023-05-07T03:54:16;3.75;;;3.42;;
18947;SDS011;9607;51.600;7.558;2023-05-07T03:56:43;4.28;;;3.97;;
18947;SDS011;9607;51.600;7.558;2023-05-07T03:59:12;4.05;;;3.65;;
18947;SDS011;9607;51.600;7.558;2023-05-07T04:01:39;4.53;;;4.10;;
18947;SDS011;9607;51.600;7.558;2023-05-07T04:04:06;4.47;;;3.85;;
18947;SDS011;9607;51.600;7.558;2023-05-07T04:06:32;3.97;;;3.60;;
18947;SDS011;9607;51.600;7.558;2023-05-07T04:08:59;3.65;;;3.33;;
18947;SDS011;9607;51.600;7.558;2023-05-07T04:11:26;3.50;;;3.20;;
18947;SDS011;9607;51.600;7.558;2023-05-07T04:13:53;3.50;;;3.20;;
18947;SDS011;9607;51.600;7.558;2023-05-07T04:16:21;3.40;;;3.10;;
18947;SDS011;9607;51.600;7.558;2023-05-07T04:18:49;3.65;;;3.20;;
18947;SDS011;9607;51.600;7.558;2023-05-07T04:21:15;3.47;;;3.17;;
18947;SDS011;9607;51.600;7.558;2023-05-07T04:23:43;3.67;;;3.38;;
18947;SDS011;9607;51.600;7.558;2023-05-07T04:26:10;3.85;;;3.55;;
18947;SDS011;9607;51.600;7.558;2023-05-07T04:28:37;3.22;;;2.97;;
18947;SDS011;9607;51.600;7.558;2023-05-07T04:31:06;3.40;;;3.10;;
18947;SDS011;9607;51.600;7.558;2023-05-07T04:33:35;3.50;;;3.10;;
18947;SDS011;9607;51.600;7.558;2023-05-07T04:36:02;3.47;;;3.17;;
18947;SDS011;9607;51.600;7.558;2023-05-07T04:38:29;3.42;;;3.13;;
18947;SDS011;9607;51.600;7.558;2023-05-07T04:40:56;3.22;;;2.92;;
18947;SDS011;9607;51.600;7.558;2023-05-07T04:43:23;3.08;;;2.85;;
18947;SDS011;9607;51.600;7.558;2023-05-07T04:45:50;3.47;;;3.22;;
18947;SDS011;9607;51.600;7.558;2023-05-07T04:48:17;3.63;;;3.33;;
18947;SDS011;9607;51.600;7.558;2023-05-07T04:50:48;3.70;;;3.40;;
18947;SDS011;9607;51.600;7.558;2023-05-07T04:53:15;3.35;;;3.05;;
18947;SDS011;9607;51.600;7.558;2023-05-07T04:55:43;3.67;;;3.38;;
18947;SDS011;9607;51.600;7.558;2023-05-07T04:58:10;4.10;;;3.53;;
18947;SDS011;9607;51.600;7.558;2023-05-07T05:00:37;3.38;;;3.10;;
18947;SDS011;9607;51.600;7.558;2023-05-07T05:03:04;3.17;;;2.90;;
18947;SDS011;9607;51.600;7.558;2023-05-07T05:05:31;3.42;;;3.13;;
18947;SDS011;9607;51.600;7.558;2023-05-07T05:07:59;2.88;;;2.63;;
18947;SDS011;9607;51.600;7.558;2023-05-07T05:10:26;3.08;;;2.83;;
18947;SDS011;9607;51.600;7.558;2023-05-07T05:12:52;3.47;;;3.17;;
18947;SDS011;9607;51.600;7.558;2023-05-07T05:15:19;2.70;;;2.50;;
18947;SDS011;9607;51.600;7.558;2023-05-07T05:17:46;3.28;;;3.00;;
18947;SDS011;9607;51.600;7.558;2023-05-07T05:20:13;3.80;;;3.50;;
18947;SDS011;9607;51.600;7.558;2023-05-07T05:22:40;3.75;;;3.45;;
18947;SDS011;9607;51.600;7.558;2023-05-07T05:25:09;3.20;;;2.90;;
18947;SDS011;9607;51.600;7.558;2023-05-07T05:27:35;3.55;;;3.25;;
18947;SDS011;9607;51.600;7.558;2023-05-07T05:30:03;3.60;;;3.30;;
18947;SDS011;9607;51.600;7.558;2023-05-07T05:32:30;3.00;;;2.80;;
18947;SDS011;9607;51.600;7.558;2023-05-07T05:34:57;3.17;;;2.80;;
18947;SDS011;9607;51.600;7.558;2023-05-07T05:37:25;4.40;;;4.00;;
18947;SDS011;9607;51.600;7.558;2023-05-07T05:39:51;4.20;;;3.90;;
18947;SDS011;9607;51.600;7.558;2023-05-07T05:42:21;4.70;;;4.30;;
18947;SDS011;9607;51.600;7.558;2023-05-07T05:44:48;5.13;;;4.65;;
18947;SDS011;9607;51.600;7.558;2023-05-07T05:47:15;4.53;;;4.13;;
18947;SDS011;9607;51.600;7.558;2023-05-07T05:49:42;3.65;;;3.33;;
18947;SDS011;9607;51.600;7.558;2023-05-07T05:52:09;5.20;;;4.72;;
18947;SDS011;9607;51.600;7.558;2023-05-07T05:54:37;4.53;;;4.13;;
18947;SDS011;9607;51.600;7.558;2023-05-07T05:57:04;5.60;;;5.10;;
18947;SDS011;9607;51.600;7.558;2023-05-07T05:59:32;4.97;;;4.47;;
18947;SDS011;9607;51.600;7.558;2023-05-07T06:01:59;5.82;;;5.32;;
18947;SDS011;9607;51.600;7.558;2023-05-07T06:04:26;7.93;;;7.18;;
18947;SDS011;9607;51.600;7.558;2023-05-07T06:06:53;6.93;;;6.32;;
18947;SDS011;9607;51.600;7.558;2023-05-07T06:09:20;6.80;;;6.20;;
18947;SDS011;9607;51.600;7.558;2023-05-07T06:11:47;5.72;;;5.22;;
18947;SDS011;9607;51.600;7.558;2023-05-07T06:14:13;6.13;;;5.63;;
18947;SDS011;9607;51.600;7.558;2023-05-07T06:16:41;5.03;;;4.53;;
18947;SDS011;9607;51.600;7.558;2023-05-07T06:19:08;5.93;;;5.43;;
18947;SDS011;9607;51.600;7.558;2023-05-07T06:21:35;6.38;;;5.78;;
18947;SDS011;9607;51.600;7.558;2023-05-07T06:24:02;5.78;;;5.28;;
18947;SDS011;9607;51.600;7.558;2023-05-07T06:26:29;5.80;;;5.30;;
18947;SDS011;9607;51.600;7.558;2023-05-07T06:28:55;8.05;;;7.22;;
18947;SDS011;9607;51.600;7.558;2023-05-07T06:31:22;7.25;;;6.63;;
18947;SDS011;9607;51.600;7.558;2023-05-07T06:33:50;6.65;;;6.03;;
18947;SDS011;9607;51.600;7.558;2023-05-07T06:36:17;8.20;;;7.40;;
18947;SDS011;9607;51.600;7.558;2023-05-07T06:38:44;7.65;;;6.95;;
18947;SDS011;9607;51.600;7.558;2023-05-07T06:41:11;7.63;;;6.88;;
18947;SDS011;9607;51.600;7.558;2023-05-07T06:43:37;7.82;;;7.13;;
18947;SDS011;9607;51.600;7.558;2023-05-07T06:46:04;7.53;;;6.72;;
18947;SDS011;9607;51.600;7.558;2023-05-07T06:48:31;6.60;;;6.00;;
18947;SDS011;9607;51.600;7.558;2023-05-07T06:50:59;8.23;;;7.43;;
18947;SDS011;9607;51.600;7.558;2023-05-07T06:53:26;6.07;;;5.47;;
18947;SDS011;9607;51.600;7.558;2023-05-07T06:55:54;5.70;;;5.20;;
18947;SDS011;9607;51.600;7.558;2023-05-07T06:58:20;5.25;;;4.75;;
18947;SDS011;9607;51.600;7.558;2023-05-07T07:00:47;5.97;;;5.38;;
18947;SDS011;9607;51.600;7.558;2023-05-07T07:03:15;5.28;;;4.88;;
18947;SDS011;9607;51.600;7.558;2023-05-07T07:05:41;6.68;;;6.07;;
18947;SDS011;9607;51.600;7.558;2023-05-07T07:08:10;5.55;;;5.05;;
18947;SDS011;9607;51.600;7.558;2023-05-07T07:10:36;4.80;;;4.40;;
18947;SDS011;9607;51.600;7.558;2023-05-07T07:13:03;7.15;;;6.45;;
18947;SDS011;9607;51.600;7.558;2023-05-07T07:15:31;7.68;;;6.97;;
18947;SDS011;9607;51.600;7.558;2023-05-07T07:17:58;6.65;;;6.03;;
18947;SDS011;9607;51.600;7.558;2023-05-07T07:20:25;7.78;;;7.03;;
18947;SDS011;9607;51.600;7.558;2023-05-07T07:22:51;9.20;;;8.38;;
18947;SDS011;9607;51.600;7.558;2023-05-07T07:25:20;7.50;;;6.80;;
18947;SDS011;9607;51.600;7.558;2023-05-07T07:27:46;8.73;;;7.93;;
18947;SDS011;9607;51.600;7.558;2023-05-07T07:30:13;6.78;;;6.18;;
18947;SDS011;9607;51.600;7.558;2023-05-07T07:32:40;8.45;;;6.95;;
18947;SDS011;9607;51.600;7.558;2023-05-07T07:35:08;6.55;;;5.90;;
18947;SDS011;9607;51.600;7.558;2023-05-07T07:37:35;6.80;;;6.20;;
18947;SDS011;9607;51.600;7.558;2023-05-07T07:40:02;8.05;;;7.32;;
18947;SDS011;9607;51.600;7.558;2023-05-07T07:42:30;8.18;;;7.47;;
18947;SDS011;9607;51.600;7.558;2023-05-07T07:44:57;8.80;;;7.95;;
18947;SDS011;9607;51.600;7.558;2023-05-07T07:47:24;8.30;;;7.40;;
18947;SDS011;9607;51.600;7.558;2023-05-07T07:49:51;8.13;;;7.30;;
18947;SDS011;9607;51.600;7.558;2023-05-07T07:52:18;8.93;;;8.13;;
18947;SDS011;9607;51.600;7.558;2023-05-07T07:54:45;8.48;;;7.72;;
18947;SDS011;9607;51.600;7.558;2023-05-07T07:57:11;6.97;;;6.32;;
18947;SDS011;9607;51.600;7.558;2023-05-07T07:59:40;7.57;;;6.90;;
18947;SDS011;9607;51.600;7.558;2023-05-07T08:02:08;8.25;;;7.45;;
18947;SDS011;9607;51.600;7.558;2023-05-07T08:04:34;7.38;;;6.78;;
18947;SDS011;9607;51.600;7.558;2023-05-07T08:07:02;6.95;;;6.35;;
18947;SDS011;9607;51.600;7.558;2023-05-07T08:09:29;5.65;;;5.15;;
18947;SDS011;9607;51.600;7.558;2023-05-07T08:11:56;6.35;;;5.63;;
18947;SDS011;9607;51.600;7.558;2023-05-07T08:14:22;5.90;;;5.40;;
18947;SDS011;9607;51.600;7.558;2023-05-07T08:16:51;7.22;;;6.63;;
18947;SDS011;9607;51.600;7.558;2023-05-07T08:19:19;7.45;;;6.80;;
18947;SDS011;9607;51.600;7.558;2023-05-07T08:21:47;8.63;;;7.75;;
18947;SDS011;9607;51.600;7.558;2023-05-07T08:24:14;7.03;;;6.43;;
18947;SDS011;9607;51.600;7.558;2023-05-07T08:26:41;7.45;;;6.85;;
18947;SDS011;9607;51.600;7.558;2023-05-07T08:29:09;6.43;;;5.82;;
18947;SDS011;9607;51.600;7.558;2023-05-07T08:31:36;6.88;;;6.28;;
18947;SDS011;9607;51.600;7.558;2023-05-07T08:34:05;6.45;;;5.85;;
18947;SDS011;9607;51.600;7.558;2023-05-07T08:36:32;8.38;;;7.38;;
18947;SDS011;9607;51.600;7.558;2023-05-07T08:38:59;6.65;;;6.05;;
18947;SDS011;9607;51.600;7.558;2023-05-07T08:41:27;7.00;;;6.40;;
18947;SDS011;9607;51.600;7.558;2023-05-07T08:43:54;5.18;;;4.75;;
18947;SDS011;9607;51.600;7.558;2023-05-07T08:46:24;7.07;;;6.38;;
18947;SDS011;9607;51.600;7.558;2023-05-07T08:48:51;6.35;;;5.70;;
18947;SDS011;9607;51.600;7.558;2023-05-07T08:51:20;6.47;;;5.88;;
18947;SDS011;9607;51.600;7.558;2023-05-07T08:53:48;6.13;;;5.63;;
18947;SDS011;9607;51.600;7.558;2023-05-07T08:56:16;7.53;;;6.93;;
18947;SDS011;9607;51.600;7.558;2023-05-07T08:58:43;7.32;;;5.72;;
18947;SDS011;9607;51.600;7.558;2023-05-07T09:01:12;6.55;;;5.90;;
18947;SDS011;9607;51.600;7.558;2023-05-07T09:03:40;5.90;;;5.40;;
18947;SDS011;9607;51.600;7.558;2023-05-07T09:06:10;6.85;;;6.03;;
18947;SDS011;9607;51.600;7.558;2023-05-07T09:08:38;5.97;;;5.47;;
18947;SDS011;9607;51.600;7.558;2023-05-07T09:11:05;7.00;;;6.30;;
18947;SDS011;9607;51.600;7.558;2023-05-07T09:13:32;6.47;;;5.85;;
18947;SDS011;9607;51.600;7.558;2023-05-07T09:15:58;7.20;;;6.60;;
18947;SDS011;9607;51.600;7.558;2023-05-07T09:18:35;6.75;;;5.88;;
18947;SDS011;9607;51.600;7.558;2023-05-07T09:21:09;7.10;;;6.50;;
18947;SDS011;9607;51.600;7.558;2023-05-07T09:23:37;4.75;;;4.35;;
18947;SDS011;9607;51.600;7.558;2023-05-07T09:26:05;7.15;;;6.47;;
18947;SDS011;9607;51.600;7.558;2023-05-07T09:28:37;6.82;;;6.22;;
18947;SDS011;9607;51.600;7.558;2023-05-07T09:31:05;5.03;;;4.63;;
18947;SDS011;9607;51.600;7.558;2023-05-07T09:33:32;4.75;;;4.35;;
18947;SDS011;9607;51.600;7.558;2023-05-07T09:36:01;4.53;;;4.13;;
18947;SDS011;9607;51.600;7.558;2023-05-07T09:38:30;4.70;;;4.30;;
18947;SDS011;9607;51.600;7.558;2023-05-07T09:41:05;5.55;;;5.05;;
18947;SDS011;9607;51.600;7.558;2023-05-07T09:43:34;5.80;;;5.30;;
18947;SDS011;9607;51.600;7.558;2023-05-07T09:46:02;5.40;;;5.00;;
18947;SDS011;9607;51.600;7.558;2023-05-07T09:48:31;6.30;;;5.78;;
18947;SDS011;9607;51.600;7.558;2023-05-07T09:51:01;4.55;;;3.80;;
18947;SDS011;9607;51.600;7.558;2023-05-07T09:53:33;5.78;;;5.28;;
18947;SDS011;9607;51.600;7.558;2023-05-07T09:56:00;5.28;;;4.88;;
18947;SDS011;9607;51.600;7.558;2023-05-07T09:58:29;6.00;;;5.50;;
18947;SDS011;9607;51.600;7.558;2023-05-07T10:00:58;4.75;;;4.35;;
18947;SDS011;9607;51.600;7.558;2023-05-07T10:03:24;4.65;;;4.25;;
18947;SDS011;9607;51.600;7.558;2023-05-07T10:05:55;4.40;;;4.00;;
18947;SDS011;9607;51.600;7.558;2023-05-07T10:08:22;5.28;;;4.85;;
18947;SDS011;9607;51.600;7.558;2023-05-07T10:10:49;4.75;;;4.35;;
18947;SDS011;9607;51.600;7.558;2023-05-07T10:13:17;4.47;;;4.05;;
18947;SDS011;9607;51.600;7.558;2023-05-07T10:15:46;5.25;;;4.78;;
18947;SDS011;9607;51.600;7.558;2023-05-07T10:18:14;4.65;;;4.25;;
18947;SDS011;9607;51.600;7.558;2023-05-07T10:20:43;3.75;;;3.45;;
18947;SDS011;9607;51.600;7.558;2023-05-07T10:23:12;6.32;;;5.72;;
18947;SDS011;9607;51.600;7.558;2023-05-07T10:25:43;4.90;;;4.40;;
18947;SDS011;9607;51.600;7.558;2023-05-07T10:28:10;5.97;;;5.47;;
18947;SDS011;9607;51.600;7.558;2023-05-07T10:30:40;7.03;;;5.13;;
18947;SDS011;9607;51.600;7.558;2023-05-07T10:33:19;6.55;;;5.95;;
18947;SDS011;9607;51.600;7.558;2023-05-07T10:35:51;4.75;;;4.25;;
18947;SDS011;9607;51.600;7.558;2023-05-07T10:38:24;5.38;;;4.93;;
18947;SDS011;9607;51.600;7.558;2023-05-07T10:40:51;4.25;;;3.85;;
18947;SDS011;9607;51.600;7.558;2023-05-07T10:43:18;4.57;;;4.18;;
18947;SDS011;9607;51.600;7.558;2023-05-07T10:45:55;3.47;;;3.17;;
18947;SDS011;9607;51.600;7.558;2023-05-07T10:48:40;4.47;;;4.18;;
18947;SDS011;9607;51.600;7.558;2023-05-07T10:51:37;5.47;;;4.80;;
18947;SDS011;9607;51.600;7.558;2023-05-07T10:54:21;5.97;;;5.38;;
18947;SDS011;9607;51.600;7.558;2023-05-07T10:56:48;4.93;;;4.53;;
18947;SDS011;9607;51.600;7.558;2023-05-07T10:59:37;5.57;;;5.07;;
18947;SDS011;9607;51.600;7.558;2023-05-07T11:02:09;4.30;;;3.90;;
18947;SDS011;9607;51.600;7.558;2023-05-07T11:04:39;4.93;;;4.53;;
18947;SDS011;9607;51.600;7.558;2023-05-07T11:07:18;4.65;;;4.25;;
18947;SDS011;9607;51.600;7.558;2023-05-07T11:09:54;4.13;;;3.83;;
18947;SDS011;9607;51.600;7.558;2023-05-07T11:15:35;4.72;;;4.32;;
18947;SDS011;9607;51.600;7.558;2023-05-07T11:18:08;5.25;;;4.85;;
18947;SDS011;9607;51.600;7.558;2023-05-07T11:20:45;4.15;;;3.85;;
18947;SDS011;9607;51.600;7.558;2023-05-07T11:26:46;4.20;;;3.90;;
18947;SDS011;9607;51.600;7.558;2023-05-07T11:29:14;4.80;;;4.38;;
18947;SDS011;9607;51.600;7.558;2023-05-07T11:31:42;5.80;;;4.60;;
18947;SDS011;9607;51.600;7.558;2023-05-07T11:34:11;3.53;;;3.08;;
18947;SDS011;9607;51.600;7.558;2023-05-07T11:36:41;3.58;;;3.28;;
18947;SDS011;9607;51.600;7.558;2023-05-07T11:39:26;3.03;;;2.83;;
18947;SDS011;9607;51.600;7.558;2023-05-07T11:41:54;3.13;;;2.92;;
18947;SDS011;9607;51.600;7.558;2023-05-07T11:44:23;2.72;;;2.50;;
18947;SDS011;9607;51.600;7.558;2023-05-07T11:46:50;3.10;;;2.80;;
18947;SDS011;9607;51.600;7.558;2023-05-07T11:49:18;3.90;;;3.40;;
18947;SDS011;9607;51.600;7.558;2023-05-07T11:51:45;5.03;;;3.95;;
18947;SDS011;9607;51.600;7.558;2023-05-07T11:54:15;3.47;;;3.20;;
18947;SDS011;9607;51.600;7.558;2023-05-07T11:56:43;4.57;;;4.10;;
18947;SDS011;9607;51.600;7.558;2023-05-07T11:59:10;3.83;;;3.53;;
18947;SDS011;9607;51.600;7.558;2023-05-07T12:01:37;4.32;;;3.25;;
18947;SDS011;9607;51.600;7.558;2023-05-07T12:04:04;3.03;;;2.78;;
18947;SDS011;9607;51.600;7.558;2023-05-07T12:06:35;2.80;;;2.60;;
18947;SDS011;9607;51.600;7.558;2023-05-07T12:09:03;2.90;;;2.65;;
18947;SDS011;9607;51.600;7.558;2023-05-07T12:11:32;2.90;;;2.70;;
18947;SDS011;9607;51.600;7.558;2023-05-07T12:13:59;2.88;;;2.67;;
18947;SDS011;9607;51.600;7.558;2023-05-07T12:16:26;3.00;;;2.80;;
18947;SDS011;9607;51.600;7.558;2023-05-07T12:18:53;3.45;;;2.83;;
18947;SDS011;9607;51.600;7.558;2023-05-07T12:21:21;3.65;;;2.90;;
18947;SDS011;9607;51.600;7.558;2023-05-07T12:23:50;3.92;;;2.90;;
18947;SDS011;9607;51.600;7.558;2023-05-07T12:26:18;2.88;;;2.60;;
18947;SDS011;9607;51.600;7.558;2023-05-07T12:28:46;2.70;;;2.50;;
18947;SDS011;9607;51.600;7.558;2023-05-07T12:31:13;3.05;;;2.75;;
18947;SDS011;9607;51.600;7.558;2023-05-07T12:33:40;3.13;;;2.80;;
18947;SDS011;9607;51.600;7.558;2023-05-07T12:36:08;3.45;;;3.15;;
18947;SDS011;9607;51.600;7.558;2023-05-07T12:38:35;3.20;;;2.90;;
18947;SDS011;9607;51.600;7.558;2023-05-07T12:41:05;3.20;;;2.85;;
18947;SDS011;9607;51.600;7.558;2023-05-07T12:43:33;2.78;;;2.58;;
18947;SDS011;9607;51.600;7.558;2023-05-07T12:46:01;3.35;;;3.05;;
18947;SDS011;9607;51.600;7.558;2023-05-07T12:48:29;3.45;;;3.10;;
18947;SDS011;9607;51.600;7.558;2023-05-07T12:51:00;2.97;;;2.78;;
18947;SDS011;9607;51.600;7.558;2023-05-07T12:53:28;3.42;;;3.10;;
18947;SDS011;9607;51.600;7.558;2023-05-07T12:55:57;2.88;;;2.67;;
18947;SDS011;9607;51.600;7.558;2023-05-07T12:58:26;3.38;;;3.08;;
18947;SDS011;9607;51.600;7.558;2023-05-07T13:00:55;2.88;;;2.58;;
18947;SDS011;9607;51.600;7.558;2023-05-07T13:03:25;2.88;;;2.60;;
18947;SDS011;9607;51.600;7.558;2023-05-07T13:05:54;3.25;;;2.95;;
18947;SDS011;9607;51.600;7.558;2023-05-07T13:08:27;2.97;;;2.78;;
18947;SDS011;9607;51.600;7.558;2023-05-07T13:10:55;3.03;;;2.83;;
18947;SDS011;9607;51.600;7.558;2023-05-07T13:13:22;2.63;;;2.42;;
18947;SDS011;9607;51.600;7.558;2023-05-07T13:15:51;2.50;;;2.30;;
18947;SDS011;9607;51.600;7.558;2023-05-07T13:18:18;2.67;;;2.47;;
18947;SDS011;9607;51.600;7.558;2023-05-07T13:20:45;2.75;;;2.55;;
18947;SDS011;9607;51.600;7.558;2023-05-07T13:23:12;2.65;;;2.42;;
18947;SDS011;9607;51.600;7.558;2023-05-07T13:25:38;2.95;;;2.75;;
18947;SDS011;9607;51.600;7.558;2023-05-07T13:28:05;2.80;;;2.60;;
18947;SDS011;9607;51.600;7.558;2023-05-07T13:30:32;2.45;;;2.25;;
18947;SDS011;9607;51.600;7.558;2023-05-07T13:33:01;3.00;;;2.80;;
18947;SDS011;9607;51.600;7.558;2023-05-07T13:35:28;2.85;;;2.58;;
18947;SDS011;9607;51.600;7.558;2023-05-07T13:37:55;3.00;;;2.80;;
18947;SDS011;9607;51.600;7.558;2023-05-07T13:40:21;4.32;;;2.88;;
18947;SDS011;9607;51.600;7.558;2023-05-07T13:42:49;2.72;;;2.53;;
18947;SDS011;9607;51.600;7.558;2023-05-07T13:45:16;2.25;;;2.15;;
18947;SDS011;9607;51.600;7.558;2023-05-07T13:47:43;3.55;;;3.25;;
18947;SDS011;9607;51.600;7.558;2023-05-07T13:50:12;3.55;;;3.25;;
18947;SDS011;9607;51.600;7.558;2023-05-07T13:52:40;6.82;;;4.50;;
18947;SDS011;9607;51.600;7.558;2023-05-07T13:55:08;5.03;;;4.47;;
18947;SDS011;9607;51.600;7.558;2023-05-07T13:57:35;4.05;;;3.75;;
18947;SDS011;9607;51.600;7.558;2023-05-07T14:00:02;4.20;;;3.83;;
18947;SDS011;9607;51.600;7.558;2023-05-07T14:02:30;3.85;;;3.45;;
18947;SDS011;9607;51.600;7.558;2023-05-07T14:04:57;3.90;;;3.60;;
18947;SDS011;9607;51.600;7.558;2023-05-07T14:07:25;3.38;;;3.15;;
18947;SDS011;9607;51.600;7.558;2023-05-07T14:09:52;3.15;;;2.95;;
18947;SDS011;9607;51.600;7.558;2023-05-07T14:12:19;4.18;;;3.80;;
18947;SDS011;9607;51.600;7.558;2023-05-07T14:14:45;3.78;;;3.40;;
18947;SDS011;9607;51.600;7.558;2023-05-07T14:17:14;3.92;;;3.53;;
18947;SDS011;9607;51.600;7.558;2023-05-07T14:19:41;3.38;;;3.08;;
18947;SDS011;9607;51.600;7.558;2023-05-07T14:22:08;4.70;;;3.83;;
18947;SDS011;9607;51.600;7.558;2023-05-07T14:24:36;3.45;;;3.15;;
18947;SDS011;9607;51.600;7.558;2023-05-07T14:27:04;4.07;;;3.72;;
18947;SDS011;9607;51.600;7.558;2023-05-07T14:29:31;3.92;;;3.60;;
18947;SDS011;9607;51.600;7.558;2023-05-07T14:32:00;3.03;;;2.80;;
18947;SDS011;9607;51.600;7.558;2023-05-07T14:34:27;2.50;;;2.30;;
18947;SDS011;9607;51.600;7.558;2023-05-07T14:36:54;2.85;;;2.65;;
18947;SDS011;9607;51.600;7.558;2023-05-07T14:39:21;2.95;;;2.72;;
18947;SDS011;9607;51.600;7.558;2023-05-07T14:41:49;2.65;;;2.45;;
18947;SDS011;9607;51.600;7.558;2023-05-07T14:44:16;2.58;;;2.38;;
18947;SDS011;9607;51.600;7.558;2023-05-07T14:46:43;2.58;;;2.38;;
18947;SDS011;9607;51.600;7.558;2023-05-07T14:49:09;2.92;;;2.70;;
18947;SDS011;9607;51.600;7.558;2023-05-07T14:51:41;2.70;;;2.50;;
18947;SDS011;9607;51.600;7.558;2023-05-07T14:54:08;3.25;;;2.58;;
18947;SDS011;9607;51.600;7.558;2023-05-07T14:56:36;2.60;;;2.40;;
18947;SDS011;9607;51.600;7.558;2023-05-07T14:59:04;3.92;;;3.60;;
18947;SDS011;9607;51.600;7.558;2023-05-07T15:01:31;2.97;;;2.78;;
18947;SDS011;9607;51.600;7.558;2023-05-07T15:04:00;2.92;;;2.72;;
18947;SDS011;9607;51.600;7.558;2023-05-07T15:06:26;3.10;;;2.90;;
18947;SDS011;9607;51.600;7.558;2023-05-07T15:08:54;3.58;;;3.28;;
18947;SDS011;9607;51.600;7.558;2023-05-07T15:11:21;2.67;;;2.47;;